sensor_id;sensor_type;location;lat;lon;timestamp;P1;P2;P0
73565;PMS5003;61846;52.970;-3.168;2022-11-20T00:00:09;8;8;
73565;PMS5003;61846;52.970;-3.168;2022-11-20T00:02:34;11;11;
73565;PMS5003;61846;52.970;-3.168;2022-11-20T00:04:59;17;14;
73565;PMS5003;61846;52.970;-3.168;2022-11-20T00:07:25;11;8;
73565;PMS5003;61846;52.970;-3.168;2022-11-20T00:09:50;10;8;
73565;PMS5003;61846;52.970;-3.168;2022-11-20T00:12:16;11;11;
73565;PMS5003;61846;52.970;-3.168;2022-11-20T00:14:42;10;7;
73565;PMS5003;61846;52.970;-3.168;2022-11-20T00:17:08;11;9;
73565;PMS5003;61846;52.970;-3.168;2022-11-20T00:19:33;7;7;
73565;PMS5003;61846;52.970;-3.168;2022-11-20T00:21:58;13;8;
73565;PMS5003;61846;52.970;-3.168;2022-11-20T00:24:24;14;8;
73565;PMS5003;61846;52.970;-3.168;2022-11-20T00:26:49;14;10;
73565;PMS5003;61846;52.970;-3.168;2022-11-20T00:29:14;9;9;
73565;PMS5003;61846;52.970;-3.168;2022-11-20T00:31:40;16;12;
73565;PMS5003;61846;52.970;-3.168;2022-11-20T00:34:05;24;17;
73565;PMS5003;61846;52.970;-3.168;2022-11-20T00:36:32;17;12;
73565;PMS5003;61846;52.970;-3.168;2022-11-20T00:38:57;9;8;
73565;PMS5003;61846;52.970;-3.168;2022-11-20T00:41:22;20;14;
73565;PMS5003;61846;52.970;-3.168;2022-11-20T00:43:48;14;14;
73565;PMS5003;61846;52.970;-3.168;2022-11-20T00:46:13;25;22;
73565;PMS5003;61846;52.970;-3.168;2022-11-20T00:48:38;19;16;
73565;PMS5003;61846;52.970;-3.168;2022-11-20T00:51:04;10;7;
73565;PMS5003;61846;52.970;-3.168;2022-11-20T00:53:30;20;18;
73565;PMS5003;61846;52.970;-3.168;2022-11-20T00:55:55;16;10;
73565;PMS5003;61846;52.970;-3.168;2022-11-20T00:58:20;11;11;
73565;PMS5003;61846;52.970;-3.168;2022-11-20T01:00:45;21;12;
73565;PMS5003;61846;52.970;-3.168;2022-11-20T01:03:11;11;10;
73565;PMS5003;61846;52.970;-3.168;2022-11-20T01:05:36;14;12;
73565;PMS5003;61846;52.970;-3.168;2022-11-20T01:08:02;18;15;
73565;PMS5003;61846;52.970;-3.168;2022-11-20T01:10:28;18;15;
73565;PMS5003;61846;52.970;-3.168;2022-11-20T01:12:53;12;10;
73565;PMS5003;61846;52.970;-3.168;2022-11-20T01:15:19;17;13;
73565;PMS5003;61846;52.970;-3.168;2022-11-20T01:17:44;14;12;
73565;PMS5003;61846;52.970;-3.168;2022-11-20T01:20:10;14;14;
73565;PMS5003;61846;52.970;-3.168;2022-11-20T01:22:35;7;7;
73565;PMS5003;61846;52.970;-3.168;2022-11-20T01:25:00;15;13;
73565;PMS5003;61846;52.970;-3.168;2022-11-20T01:27:26;10;10;
73565;PMS5003;61846;52.970;-3.168;2022-11-20T01:29:51;13;12;
73565;PMS5003;61846;52.970;-3.168;2022-11-20T01:32:17;13;12;
73565;PMS5003;61846;52.970;-3.168;2022-11-20T01:34:42;13;12;
73565;PMS5003;61846;52.970;-3.168;2022-11-20T01:37:08;12;11;
73565;PMS5003;61846;52.970;-3.168;2022-11-20T01:39:33;12;12;
73565;PMS5003;61846;52.970;-3.168;2022-11-20T01:41:59;10;10;
73565;PMS5003;61846;52.970;-3.168;2022-11-20T01:46:52;13;12;
73565;PMS5003;61846;52.970;-3.168;2022-11-20T01:49:16;11;11;
73565;PMS5003;61846;52.970;-3.168;2022-11-20T01:51:41;13;11;
73565;PMS5003;61846;52.970;-3.168;2022-11-20T01:54:06;12;11;
73565;PMS5003;61846;52.970;-3.168;2022-11-20T01:56:31;21;15;
73565;PMS5003;61846;52.970;-3.168;2022-11-20T01:58:56;14;12;
73565;PMS5003;61846;52.970;-3.168;2022-11-20T02:01:22;11;11;
73565;PMS5003;61846;52.970;-3.168;2022-11-20T02:03:48;12;12;
73565;PMS5003;61846;52.970;-3.168;2022-11-20T02:06:15;9;8;
73565;PMS5003;61846;52.970;-3.168;2022-11-20T02:08:38;10;10;
73565;PMS5003;61846;52.970;-3.168;2022-11-20T02:11:04;9;9;
73565;PMS5003;61846;52.970;-3.168;2022-11-20T02:13:29;10;10;
73565;PMS5003;61846;52.970;-3.168;2022-11-20T02:15:55;9;9;
73565;PMS5003;61846;52.970;-3.168;2022-11-20T02:18:21;12;10;
73565;PMS5003;61846;52.970;-3.168;2022-11-20T02:20:46;12;11;
73565;PMS5003;61846;52.970;-3.168;2022-11-20T02:23:12;17;11;
73565;PMS5003;61846;52.970;-3.168;2022-11-20T02:25:37;10;10;
73565;PMS5003;61846;52.970;-3.168;2022-11-20T02:28:02;8;7;
73565;PMS5003;61846;52.970;-3.168;2022-11-20T02:30:28;10;8;
73565;PMS5003;61846;52.970;-3.168;2022-11-20T02:32:53;12;11;
73565;PMS5003;61846;52.970;-3.168;2022-11-20T02:37:44;7;7;
73565;PMS5003;61846;52.970;-3.168;2022-11-20T02:40:10;13;10;
73565;PMS5003;61846;52.970;-3.168;2022-11-20T02:42:35;14;12;
73565;PMS5003;61846;52.970;-3.168;2022-11-20T02:45:01;12;10;
73565;PMS5003;61846;52.970;-3.168;2022-11-20T02:47:27;16;13;
73565;PMS5003;61846;52.970;-3.168;2022-11-20T02:49:52;10;9;
73565;PMS5003;61846;52.970;-3.168;2022-11-20T02:52:18;13;11;
73565;PMS5003;61846;52.970;-3.168;2022-11-20T02:54:43;8;8;
73565;PMS5003;61846;52.970;-3.168;2022-11-20T02:57:09;11;9;
73565;PMS5003;61846;52.970;-3.168;2022-11-20T02:59:35;14;11;
73565;PMS5003;61846;52.970;-3.168;2022-11-20T03:02:00;13;10;
73565;PMS5003;61846;52.970;-3.168;2022-11-20T03:04:26;13;11;
73565;PMS5003;61846;52.970;-3.168;2022-11-20T03:06:51;11;11;
73565;PMS5003;61846;52.970;-3.168;2022-11-20T03:09:17;10;9;
73565;PMS5003;61846;52.970;-3.168;2022-11-20T03:11:42;12;11;
73565;PMS5003;61846;52.970;-3.168;2022-11-20T03:14:08;11;11;
73565;PMS5003;61846;52.970;-3.168;2022-11-20T03:16:34;11;9;
73565;PMS5003;61846;52.970;-3.168;2022-11-20T03:18:59;10;10;
73565;PMS5003;61846;52.970;-3.168;2022-11-20T03:21:25;7;7;
73565;PMS5003;61846;52.970;-3.168;2022-11-20T03:23:51;12;12;
73565;PMS5003;61846;52.970;-3.168;2022-11-20T03:26:17;7;7;
73565;PMS5003;61846;52.970;-3.168;2022-11-20T03:28:42;8;7;
73565;PMS5003;61846;52.970;-3.168;2022-11-20T03:31:07;5;5;
73565;PMS5003;61846;52.970;-3.168;2022-11-20T03:33:32;9;8;
73565;PMS5003;61846;52.970;-3.168;2022-11-20T03:36:00;8;8;
73565;PMS5003;61846;52.970;-3.168;2022-11-20T03:38:24;9;8;
73565;PMS5003;61846;52.970;-3.168;2022-11-20T03:40:49;8;8;
73565;PMS5003;61846;52.970;-3.168;2022-11-20T03:43:15;10;8;
73565;PMS5003;61846;52.970;-3.168;2022-11-20T03:45:40;12;8;
73565;PMS5003;61846;52.970;-3.168;2022-11-20T03:48:06;6;5;
73565;PMS5003;61846;52.970;-3.168;2022-11-20T03:50:31;9;8;
73565;PMS5003;61846;52.970;-3.168;2022-11-20T03:52:57;10;10;
73565;PMS5003;61846;52.970;-3.168;2022-11-20T03:55:22;9;7;
73565;PMS5003;61846;52.970;-3.168;2022-11-20T03:57:48;7;7;
73565;PMS5003;61846;52.970;-3.168;2022-11-20T04:00:14;6;5;
73565;PMS5003;61846;52.970;-3.168;2022-11-20T04:02:39;8;8;
73565;PMS5003;61846;52.970;-3.168;2022-11-20T04:05:05;8;8;
73565;PMS5003;61846;52.970;-3.168;2022-11-20T04:07:30;7;7;
73565;PMS5003;61846;52.970;-3.168;2022-11-20T04:09:56;7;7;
73565;PMS5003;61846;52.970;-3.168;2022-11-20T04:12:22;7;7;
73565;PMS5003;61846;52.970;-3.168;2022-11-20T04:14:47;7;7;
73565;PMS5003;61846;52.970;-3.168;2022-11-20T04:17:13;8;6;
73565;PMS5003;61846;52.970;-3.168;2022-11-20T04:19:38;9;8;
73565;PMS5003;61846;52.970;-3.168;2022-11-20T04:22:04;9;7;
73565;PMS5003;61846;52.970;-3.168;2022-11-20T04:24:30;10;8;
73565;PMS5003;61846;52.970;-3.168;2022-11-20T04:26:56;9;7;
73565;PMS5003;61846;52.970;-3.168;2022-11-20T04:29:21;7;7;
73565;PMS5003;61846;52.970;-3.168;2022-11-20T04:31:47;8;8;
73565;PMS5003;61846;52.970;-3.168;2022-11-20T04:34:12;6;6;
73565;PMS5003;61846;52.970;-3.168;2022-11-20T04:36:38;6;6;
73565;PMS5003;61846;52.970;-3.168;2022-11-20T04:39:05;11;9;
73565;PMS5003;61846;52.970;-3.168;2022-11-20T04:41:30;11;8;
73565;PMS5003;61846;52.970;-3.168;2022-11-20T04:43:55;9;9;
73565;PMS5003;61846;52.970;-3.168;2022-11-20T04:46:20;8;8;
73565;PMS5003;61846;52.970;-3.168;2022-11-20T04:48:46;7;7;
73565;PMS5003;61846;52.970;-3.168;2022-11-20T04:51:12;11;9;
73565;PMS5003;61846;52.970;-3.168;2022-11-20T04:53:37;10;10;
73565;PMS5003;61846;52.970;-3.168;2022-11-20T04:56:03;8;8;
73565;PMS5003;61846;52.970;-3.168;2022-11-20T04:58:28;9;7;
73565;PMS5003;61846;52.970;-3.168;2022-11-20T05:03:19;10;9;
73565;PMS5003;61846;52.970;-3.168;2022-11-20T05:05:46;8;8;
73565;PMS5003;61846;52.970;-3.168;2022-11-20T05:08:11;9;9;
73565;PMS5003;61846;52.970;-3.168;2022-11-20T05:10:37;7;7;
73565;PMS5003;61846;52.970;-3.168;2022-11-20T05:13:02;9;8;
73565;PMS5003;61846;52.970;-3.168;2022-11-20T05:15:27;16;9;
73565;PMS5003;61846;52.970;-3.168;2022-11-20T05:17:52;8;6;
73565;PMS5003;61846;52.970;-3.168;2022-11-20T05:20:18;6;6;
73565;PMS5003;61846;52.970;-3.168;2022-11-20T05:22:44;13;11;
73565;PMS5003;61846;52.970;-3.168;2022-11-20T05:25:09;10;8;
73565;PMS5003;61846;52.970;-3.168;2022-11-20T05:27:35;12;10;
73565;PMS5003;61846;52.970;-3.168;2022-11-20T05:30:00;11;9;
73565;PMS5003;61846;52.970;-3.168;2022-11-20T05:32:25;16;12;
73565;PMS5003;61846;52.970;-3.168;2022-11-20T05:34:51;11;11;
73565;PMS5003;61846;52.970;-3.168;2022-11-20T05:37:17;10;10;
73565;PMS5003;61846;52.970;-3.168;2022-11-20T05:39:42;15;12;
73565;PMS5003;61846;52.970;-3.168;2022-11-20T05:42:07;7;7;
73565;PMS5003;61846;52.970;-3.168;2022-11-20T05:44:32;11;10;
73565;PMS5003;61846;52.970;-3.168;2022-11-20T05:46:58;10;8;
73565;PMS5003;61846;52.970;-3.168;2022-11-20T05:49:24;8;8;
73565;PMS5003;61846;52.970;-3.168;2022-11-20T05:51:49;13;13;
73565;PMS5003;61846;52.970;-3.168;2022-11-20T05:54:15;14;11;
73565;PMS5003;61846;52.970;-3.168;2022-11-20T05:56:41;12;11;
73565;PMS5003;61846;52.970;-3.168;2022-11-20T05:59:06;29;22;
73565;PMS5003;61846;52.970;-3.168;2022-11-20T06:01:31;51;36;
73565;PMS5003;61846;52.970;-3.168;2022-11-20T06:03:57;29;22;
73565;PMS5003;61846;52.970;-3.168;2022-11-20T06:06:23;29;17;
73565;PMS5003;61846;52.970;-3.168;2022-11-20T06:08:48;25;21;
73565;PMS5003;61846;52.970;-3.168;2022-11-20T06:11:13;20;15;
73565;PMS5003;61846;52.970;-3.168;2022-11-20T06:13:39;11;11;
73565;PMS5003;61846;52.970;-3.168;2022-11-20T06:16:04;20;15;
73565;PMS5003;61846;52.970;-3.168;2022-11-20T06:18:30;14;11;
73565;PMS5003;61846;52.970;-3.168;2022-11-20T06:21:00;12;12;
73565;PMS5003;61846;52.970;-3.168;2022-11-20T06:23:20;9;9;
73565;PMS5003;61846;52.970;-3.168;2022-11-20T06:25:46;14;13;
73565;PMS5003;61846;52.970;-3.168;2022-11-20T06:28:11;12;12;
73565;PMS5003;61846;52.970;-3.168;2022-11-20T06:30:37;10;10;
73565;PMS5003;61846;52.970;-3.168;2022-11-20T06:33:03;9;9;
73565;PMS5003;61846;52.970;-3.168;2022-11-20T06:35:28;12;12;
73565;PMS5003;61846;52.970;-3.168;2022-11-20T06:37:55;8;8;
73565;PMS5003;61846;52.970;-3.168;2022-11-20T06:40:20;8;8;
73565;PMS5003;61846;52.970;-3.168;2022-11-20T06:42:45;11;11;
73565;PMS5003;61846;52.970;-3.168;2022-11-20T06:45:11;12;12;
73565;PMS5003;61846;52.970;-3.168;2022-11-20T06:47:37;8;8;
73565;PMS5003;61846;52.970;-3.168;2022-11-20T06:50:02;19;16;
73565;PMS5003;61846;52.970;-3.168;2022-11-20T06:52:28;17;17;
73565;PMS5003;61846;52.970;-3.168;2022-11-20T06:54:53;18;17;
73565;PMS5003;61846;52.970;-3.168;2022-11-20T06:57:19;23;20;
73565;PMS5003;61846;52.970;-3.168;2022-11-20T06:59:44;18;15;
73565;PMS5003;61846;52.970;-3.168;2022-11-20T07:02:10;20;13;
73565;PMS5003;61846;52.970;-3.168;2022-11-20T07:04:35;12;10;
73565;PMS5003;61846;52.970;-3.168;2022-11-20T07:07:00;18;11;
73565;PMS5003;61846;52.970;-3.168;2022-11-20T07:09:26;7;6;
73565;PMS5003;61846;52.970;-3.168;2022-11-20T07:11:51;9;8;
73565;PMS5003;61846;52.970;-3.168;2022-11-20T07:14:17;7;4;
73565;PMS5003;61846;52.970;-3.168;2022-11-20T07:16:43;5;3;
73565;PMS5003;61846;52.970;-3.168;2022-11-20T07:19:09;8;5;
73565;PMS5003;61846;52.970;-3.168;2022-11-20T07:21:34;3;3;
73565;PMS5003;61846;52.970;-3.168;2022-11-20T07:24:00;13;7;
73565;PMS5003;61846;52.970;-3.168;2022-11-20T07:26:25;9;3;
73565;PMS5003;61846;52.970;-3.168;2022-11-20T07:28:51;13;2;
73565;PMS5003;61846;52.970;-3.168;2022-11-20T07:31:16;6;3;
73565;PMS5003;61846;52.970;-3.168;2022-11-20T07:33:41;8;4;
73565;PMS5003;61846;52.970;-3.168;2022-11-20T07:36:07;9;4;
73565;PMS5003;61846;52.970;-3.168;2022-11-20T07:38:32;6;4;
73565;PMS5003;61846;52.970;-3.168;2022-11-20T07:40:57;7;5;
73565;PMS5003;61846;52.970;-3.168;2022-11-20T07:43:22;11;4;
73565;PMS5003;61846;52.970;-3.168;2022-11-20T07:45:48;8;5;
73565;PMS5003;61846;52.970;-3.168;2022-11-20T07:48:13;5;4;
73565;PMS5003;61846;52.970;-3.168;2022-11-20T07:50:39;9;5;
73565;PMS5003;61846;52.970;-3.168;2022-11-20T07:53:05;9;6;
73565;PMS5003;61846;52.970;-3.168;2022-11-20T07:55:30;14;7;
73565;PMS5003;61846;52.970;-3.168;2022-11-20T07:57:55;9;4;
73565;PMS5003;61846;52.970;-3.168;2022-11-20T08:00:21;10;4;
73565;PMS5003;61846;52.970;-3.168;2022-11-20T08:02:47;6;3;
73565;PMS5003;61846;52.970;-3.168;2022-11-20T08:05:12;6;4;
73565;PMS5003;61846;52.970;-3.168;2022-11-20T08:07:38;7;3;
73565;PMS5003;61846;52.970;-3.168;2022-11-20T08:10:03;20;13;
73565;PMS5003;61846;52.970;-3.168;2022-11-20T08:12:29;7;6;
73565;PMS5003;61846;52.970;-3.168;2022-11-20T08:14:54;17;5;
73565;PMS5003;61846;52.970;-3.168;2022-11-20T08:17:20;7;6;
73565;PMS5003;61846;52.970;-3.168;2022-11-20T08:19:45;9;5;
73565;PMS5003;61846;52.970;-3.168;2022-11-20T08:22:11;12;8;
73565;PMS5003;61846;52.970;-3.168;2022-11-20T08:24:37;25;9;
73565;PMS5003;61846;52.970;-3.168;2022-11-20T08:27:02;11;6;
73565;PMS5003;61846;52.970;-3.168;2022-11-20T08:29:27;9;8;
73565;PMS5003;61846;52.970;-3.168;2022-11-20T08:31:53;13;7;
73565;PMS5003;61846;52.970;-3.168;2022-11-20T08:34:19;11;8;
73565;PMS5003;61846;52.970;-3.168;2022-11-20T08:36:44;14;5;
73565;PMS5003;61846;52.970;-3.168;2022-11-20T08:39:10;9;6;
73565;PMS5003;61846;52.970;-3.168;2022-11-20T08:41:35;9;5;
73565;PMS5003;61846;52.970;-3.168;2022-11-20T08:44:01;11;5;
73565;PMS5003;61846;52.970;-3.168;2022-11-20T08:46:26;6;4;
73565;PMS5003;61846;52.970;-3.168;2022-11-20T08:48:52;2;2;
73565;PMS5003;61846;52.970;-3.168;2022-11-20T08:51:18;10;6;
73565;PMS5003;61846;52.970;-3.168;2022-11-20T08:53:43;9;4;
73565;PMS5003;61846;52.970;-3.168;2022-11-20T08:56:08;8;4;
73565;PMS5003;61846;52.970;-3.168;2022-11-20T08:58:34;4;4;
73565;PMS5003;61846;52.970;-3.168;2022-11-20T09:00:59;6;4;
73565;PMS5003;61846;52.970;-3.168;2022-11-20T09:03:25;5;3;
73565;PMS5003;61846;52.970;-3.168;2022-11-20T09:05:51;6;4;
73565;PMS5003;61846;52.970;-3.168;2022-11-20T09:08:16;10;5;
73565;PMS5003;61846;52.970;-3.168;2022-11-20T09:10:42;8;7;
73565;PMS5003;61846;52.970;-3.168;2022-11-20T09:13:07;12;12;
73565;PMS5003;61846;52.970;-3.168;2022-11-20T09:15:33;16;7;
73565;PMS5003;61846;52.970;-3.168;2022-11-20T09:17:59;7;6;
73565;PMS5003;61846;52.970;-3.168;2022-11-20T09:20:23;14;9;
73565;PMS5003;61846;52.970;-3.168;2022-11-20T09:22:48;13;10;
73565;PMS5003;61846;52.970;-3.168;2022-11-20T09:25:14;8;8;
73565;PMS5003;61846;52.970;-3.168;2022-11-20T09:27:39;12;10;
73565;PMS5003;61846;52.970;-3.168;2022-11-20T09:30:05;8;7;
73565;PMS5003;61846;52.970;-3.168;2022-11-20T09:32:30;9;7;
73565;PMS5003;61846;52.970;-3.168;2022-11-20T09:34:56;9;9;
73565;PMS5003;61846;52.970;-3.168;2022-11-20T09:37:22;9;6;
73565;PMS5003;61846;52.970;-3.168;2022-11-20T09:39:48;10;9;
73565;PMS5003;61846;52.970;-3.168;2022-11-20T09:42:23;13;11;
73565;PMS5003;61846;52.970;-3.168;2022-11-20T09:47:06;14;8;
73565;PMS5003;61846;52.970;-3.168;2022-11-20T09:49:32;17;12;
73565;PMS5003;61846;52.970;-3.168;2022-11-20T09:51:57;15;13;
73565;PMS5003;61846;52.970;-3.168;2022-11-20T09:54:21;12;8;
73565;PMS5003;61846;52.970;-3.168;2022-11-20T09:56:48;13;8;
73565;PMS5003;61846;52.970;-3.168;2022-11-20T09:59:15;11;10;
73565;PMS5003;61846;52.970;-3.168;2022-11-20T10:01:37;15;9;
73565;PMS5003;61846;52.970;-3.168;2022-11-20T10:04:03;15;7;
73565;PMS5003;61846;52.970;-3.168;2022-11-20T10:06:29;13;8;
73565;PMS5003;61846;52.970;-3.168;2022-11-20T10:08:55;8;5;
73565;PMS5003;61846;52.970;-3.168;2022-11-20T10:11:21;7;5;
73565;PMS5003;61846;52.970;-3.168;2022-11-20T10:13:47;7;4;
73565;PMS5003;61846;52.970;-3.168;2022-11-20T10:16:14;4;4;
73565;PMS5003;61846;52.970;-3.168;2022-11-20T10:18:41;5;3;
73565;PMS5003;61846;52.970;-3.168;2022-11-20T10:21:04;6;3;
73565;PMS5003;61846;52.970;-3.168;2022-11-20T10:23:31;12;6;
73565;PMS5003;61846;52.970;-3.168;2022-11-20T10:25:54;4;2;
73565;PMS5003;61846;52.970;-3.168;2022-11-20T10:28:22;4;2;
73565;PMS5003;61846;52.970;-3.168;2022-11-20T10:30:45;6;3;
73565;PMS5003;61846;52.970;-3.168;2022-11-20T10:33:13;11;4;
73565;PMS5003;61846;52.970;-3.168;2022-11-20T10:35:36;33;26;
73565;PMS5003;61846;52.970;-3.168;2022-11-20T10:38:01;11;5;
73565;PMS5003;61846;52.970;-3.168;2022-11-20T10:40:28;9;6;
73565;PMS5003;61846;52.970;-3.168;2022-11-20T10:42:52;5;3;
73565;PMS5003;61846;52.970;-3.168;2022-11-20T10:45:33;4;2;
73565;PMS5003;61846;52.970;-3.168;2022-11-20T10:47:43;9;3;
73565;PMS5003;61846;52.970;-3.168;2022-11-20T10:50:09;6;5;
73565;PMS5003;61846;52.970;-3.168;2022-11-20T10:52:36;7;3;
73565;PMS5003;61846;52.970;-3.168;2022-11-20T10:55:02;2;2;
73565;PMS5003;61846;52.970;-3.168;2022-11-20T10:57:29;7;3;
73565;PMS5003;61846;52.970;-3.168;2022-11-20T10:59:54;3;2;
73565;PMS5003;61846;52.970;-3.168;2022-11-20T11:02:16;8;6;
73565;PMS5003;61846;52.970;-3.168;2022-11-20T11:04:43;5;3;
73565;PMS5003;61846;52.970;-3.168;2022-11-20T11:07:08;7;5;
73565;PMS5003;61846;52.970;-3.168;2022-11-20T11:09:33;9;5;
73565;PMS5003;61846;52.970;-3.168;2022-11-20T11:11:58;4;2;
73565;PMS5003;61846;52.970;-3.168;2022-11-20T11:14:23;5;4;
73565;PMS5003;61846;52.970;-3.168;2022-11-20T11:16:49;6;3;
73565;PMS5003;61846;52.970;-3.168;2022-11-20T11:19:14;7;5;
73565;PMS5003;61846;52.970;-3.168;2022-11-20T11:21:44;5;2;
73565;PMS5003;61846;52.970;-3.168;2022-11-20T11:26:31;5;3;
73565;PMS5003;61846;52.970;-3.168;2022-11-20T11:28:57;7;2;
73565;PMS5003;61846;52.970;-3.168;2022-11-20T11:31:23;8;3;
73565;PMS5003;61846;52.970;-3.168;2022-11-20T11:33:47;9;6;
73565;PMS5003;61846;52.970;-3.168;2022-11-20T11:36:16;14;5;
73565;PMS5003;61846;52.970;-3.168;2022-11-20T11:38:39;8;3;
73565;PMS5003;61846;52.970;-3.168;2022-11-20T11:41:04;4;4;
73565;PMS5003;61846;52.970;-3.168;2022-11-20T11:43:30;5;4;
73565;PMS5003;61846;52.970;-3.168;2022-11-20T11:45:55;11;4;
73565;PMS5003;61846;52.970;-3.168;2022-11-20T11:48:20;5;4;
73565;PMS5003;61846;52.970;-3.168;2022-11-20T11:50:48;13;10;
73565;PMS5003;61846;52.970;-3.168;2022-11-20T11:53:12;5;5;
73565;PMS5003;61846;52.970;-3.168;2022-11-20T11:55:38;7;6;
73565;PMS5003;61846;52.970;-3.168;2022-11-20T12:00:28;8;7;
73565;PMS5003;61846;52.970;-3.168;2022-11-20T12:02:56;15;6;
73565;PMS5003;61846;52.970;-3.168;2022-11-20T12:05:21;5;3;
73565;PMS5003;61846;52.970;-3.168;2022-11-20T12:07:45;4;1;
73565;PMS5003;61846;52.970;-3.168;2022-11-20T12:10:14;8;5;
73565;PMS5003;61846;52.970;-3.168;2022-11-20T12:12:37;4;3;
73565;PMS5003;61846;52.970;-3.168;2022-11-20T12:15:01;6;3;
73565;PMS5003;61846;52.970;-3.168;2022-11-20T12:17:27;9;6;
73565;PMS5003;61846;52.970;-3.168;2022-11-20T12:19:52;7;5;
73565;PMS5003;61846;52.970;-3.168;2022-11-20T12:22:21;9;3;
73565;PMS5003;61846;52.970;-3.168;2022-11-20T12:24:45;3;3;
73565;PMS5003;61846;52.970;-3.168;2022-11-20T12:29:37;7;5;
73565;PMS5003;61846;52.970;-3.168;2022-11-20T12:32:03;8;5;
73565;PMS5003;61846;52.970;-3.168;2022-11-20T12:34:31;4;4;
73565;PMS5003;61846;52.970;-3.168;2022-11-20T12:36:52;9;4;
73565;PMS5003;61846;52.970;-3.168;2022-11-20T12:39:20;7;6;
73565;PMS5003;61846;52.970;-3.168;2022-11-20T12:44:10;5;3;
73565;PMS5003;61846;52.970;-3.168;2022-11-20T12:46:33;3;3;
73565;PMS5003;61846;52.970;-3.168;2022-11-20T12:49:01;4;4;
73565;PMS5003;61846;52.970;-3.168;2022-11-20T12:51:27;2;2;
73565;PMS5003;61846;52.970;-3.168;2022-11-20T12:53:51;4;2;
73565;PMS5003;61846;52.970;-3.168;2022-11-20T12:56:17;3;1;
73565;PMS5003;61846;52.970;-3.168;2022-11-20T12:58:41;0;0;
73565;PMS5003;61846;52.970;-3.168;2022-11-20T13:01:07;3;3;
73565;PMS5003;61846;52.970;-3.168;2022-11-20T13:03:34;2;2;
73565;PMS5003;61846;52.970;-3.168;2022-11-20T13:05:59;1;0;
73565;PMS5003;61846;52.970;-3.168;2022-11-20T13:08:23;2;0;
73565;PMS5003;61846;52.970;-3.168;2022-11-20T13:10:49;3;0;
73565;PMS5003;61846;52.970;-3.168;2022-11-20T13:13:15;0;0;
73565;PMS5003;61846;52.970;-3.168;2022-11-20T13:15:42;0;0;
73565;PMS5003;61846;52.970;-3.168;2022-11-20T13:18:06;3;3;
73565;PMS5003;61846;52.970;-3.168;2022-11-20T13:20:30;1;1;
73565;PMS5003;61846;52.970;-3.168;2022-11-20T13:22:56;3;3;
73565;PMS5003;61846;52.970;-3.168;2022-11-20T13:25:23;2;0;
73565;PMS5003;61846;52.970;-3.168;2022-11-20T13:27:47;2;2;
73565;PMS5003;61846;52.970;-3.168;2022-11-20T13:30:13;1;0;
73565;PMS5003;61846;52.970;-3.168;2022-11-20T13:35:04;2;1;
73565;PMS5003;61846;52.970;-3.168;2022-11-20T13:37:30;0;0;
73565;PMS5003;61846;52.970;-3.168;2022-11-20T13:42:23;0;0;
73565;PMS5003;61846;52.970;-3.168;2022-11-20T13:44:47;0;0;
73565;PMS5003;61846;52.970;-3.168;2022-11-20T13:49:38;0;0;
73565;PMS5003;61846;52.970;-3.168;2022-11-20T13:52:06;1;0;
73565;PMS5003;61846;52.970;-3.168;2022-11-20T13:56:58;0;0;
73565;PMS5003;61846;52.970;-3.168;2022-11-20T13:59:26;1;1;
73565;PMS5003;61846;52.970;-3.168;2022-11-20T14:01:45;1;1;
73565;PMS5003;61846;52.970;-3.168;2022-11-20T14:04:11;0;0;
73565;PMS5003;61846;52.970;-3.168;2022-11-20T14:06:39;0;0;
73565;PMS5003;61846;52.970;-3.168;2022-11-20T14:09:02;0;0;
73565;PMS5003;61846;52.970;-3.168;2022-11-20T14:11:28;1;1;
73565;PMS5003;61846;52.970;-3.168;2022-11-20T14:13:55;0;0;
73565;PMS5003;61846;52.970;-3.168;2022-11-20T14:16:19;2;1;
73565;PMS5003;61846;52.970;-3.168;2022-11-20T14:18:44;0;0;
73565;PMS5003;61846;52.970;-3.168;2022-11-20T14:21:10;3;3;
73565;PMS5003;61846;52.970;-3.168;2022-11-20T14:23:35;1;1;
73565;PMS5003;61846;52.970;-3.168;2022-11-20T14:26:01;1;1;
73565;PMS5003;61846;52.970;-3.168;2022-11-20T14:28:27;3;1;
73565;PMS5003;61846;52.970;-3.168;2022-11-20T14:30:53;2;2;
73565;PMS5003;61846;52.970;-3.168;2022-11-20T14:33:18;5;4;
73565;PMS5003;61846;52.970;-3.168;2022-11-20T14:35:44;9;8;
73565;PMS5003;61846;52.970;-3.168;2022-11-20T14:38:09;2;2;
73565;PMS5003;61846;52.970;-3.168;2022-11-20T14:40:35;0;0;
73565;PMS5003;61846;52.970;-3.168;2022-11-20T14:43:01;5;5;
73565;PMS5003;61846;52.970;-3.168;2022-11-20T14:45:26;2;2;
73565;PMS5003;61846;52.970;-3.168;2022-11-20T14:47:52;8;8;
73565;PMS5003;61846;52.970;-3.168;2022-11-20T14:50:19;1;1;
73565;PMS5003;61846;52.970;-3.168;2022-11-20T14:55:13;5;3;
73565;PMS5003;61846;52.970;-3.168;2022-11-20T14:57:34;15;14;
73565;PMS5003;61846;52.970;-3.168;2022-11-20T15:00:05;7;7;
73565;PMS5003;61846;52.970;-3.168;2022-11-20T15:02:25;3;3;
73565;PMS5003;61846;52.970;-3.168;2022-11-20T15:04:56;7;5;
73565;PMS5003;61846;52.970;-3.168;2022-11-20T15:07:24;9;8;
73565;PMS5003;61846;52.970;-3.168;2022-11-20T15:09:41;6;6;
73565;PMS5003;61846;52.970;-3.168;2022-11-20T15:14:32;3;3;
73565;PMS5003;61846;52.970;-3.168;2022-11-20T15:16:57;3;3;
73565;PMS5003;61846;52.970;-3.168;2022-11-20T15:19:24;5;3;
73565;PMS5003;61846;52.970;-3.168;2022-11-20T15:21:48;12;10;
73565;PMS5003;61846;52.970;-3.168;2022-11-20T15:24:14;3;3;
73565;PMS5003;61846;52.970;-3.168;2022-11-20T15:26:40;10;8;
73565;PMS5003;61846;52.970;-3.168;2022-11-20T15:29:07;7;7;
73565;PMS5003;61846;52.970;-3.168;2022-11-20T15:31:31;5;4;
73565;PMS5003;61846;52.970;-3.168;2022-11-20T15:33:57;2;1;
73565;PMS5003;61846;52.970;-3.168;2022-11-20T15:36:22;7;6;
73565;PMS5003;61846;52.970;-3.168;2022-11-20T15:38:48;6;5;
73565;PMS5003;61846;52.970;-3.168;2022-11-20T15:41:13;7;7;
73565;PMS5003;61846;52.970;-3.168;2022-11-20T15:43:39;5;3;
73565;PMS5003;61846;52.970;-3.168;2022-11-20T15:46:06;8;6;
73565;PMS5003;61846;52.970;-3.168;2022-11-20T15:48:31;4;4;
73565;PMS5003;61846;52.970;-3.168;2022-11-20T15:50:57;3;3;
73565;PMS5003;61846;52.970;-3.168;2022-11-20T15:53:22;23;17;
73565;PMS5003;61846;52.970;-3.168;2022-11-20T15:55:47;51;43;
73565;PMS5003;61846;52.970;-3.168;2022-11-20T15:58:12;25;15;
73565;PMS5003;61846;52.970;-3.168;2022-11-20T16:00:38;2;2;
73565;PMS5003;61846;52.970;-3.168;2022-11-20T16:03:03;4;4;
73565;PMS5003;61846;52.970;-3.168;2022-11-20T16:05:29;3;3;
73565;PMS5003;61846;52.970;-3.168;2022-11-20T16:07:55;2;2;
73565;PMS5003;61846;52.970;-3.168;2022-11-20T16:10:20;33;23;
73565;PMS5003;61846;52.970;-3.168;2022-11-20T16:12:45;28;25;
73565;PMS5003;61846;52.970;-3.168;2022-11-20T16:15:10;17;9;
73565;PMS5003;61846;52.970;-3.168;2022-11-20T16:17:35;5;5;
73565;PMS5003;61846;52.970;-3.168;2022-11-20T16:20:01;3;3;
73565;PMS5003;61846;52.970;-3.168;2022-11-20T16:22:26;7;7;
73565;PMS5003;61846;52.970;-3.168;2022-11-20T16:24:51;7;7;
73565;PMS5003;61846;52.970;-3.168;2022-11-20T16:27:16;18;15;
73565;PMS5003;61846;52.970;-3.168;2022-11-20T16:29:42;24;16;
73565;PMS5003;61846;52.970;-3.168;2022-11-20T16:32:07;17;11;
73565;PMS5003;61846;52.970;-3.168;2022-11-20T16:34:32;30;23;
73565;PMS5003;61846;52.970;-3.168;2022-11-20T16:36:58;19;17;
73565;PMS5003;61846;52.970;-3.168;2022-11-20T16:39:24;6;6;
73565;PMS5003;61846;52.970;-3.168;2022-11-20T16:41:49;12;10;